createdAt,value
2023-01-19T00:01:46.368Z,93.38
2023-01-19T00:04:15.553Z,92.50
2023-01-19T00:06:44.440Z,98.95
2023-01-19T00:09:13.758Z,103.45
2023-01-19T00:11:43.235Z,112.15
2023-01-19T00:14:12.432Z,100.35
2023-01-19T00:16:41.571Z,90.07
2023-01-19T00:19:10.818Z,96.60
2023-01-19T00:21:39.671Z,103.68
2023-01-19T00:24:09.064Z,105.28
2023-01-19T00:26:41.538Z,116.43
2023-01-19T00:29:12.819Z,108.88
2023-01-19T00:31:42.881Z,102.32
2023-01-19T00:34:12.099Z,100.45
2023-01-19T00:36:41.327Z,97.43
2023-01-19T00:39:10.552Z,98.05
2023-01-19T00:41:58.100Z,109.95
2023-01-19T00:44:27.243Z,93.32
2023-01-19T00:46:56.285Z,115.95
2023-01-19T00:49:25.550Z,104.85
2023-01-19T00:51:54.475Z,109.78
2023-01-19T00:54:23.941Z,115.95
2023-01-19T00:56:52.902Z,103.15
2023-01-19T00:59:22.334Z,119.10
2023-01-19T01:01:53.157Z,115.75
2023-01-19T01:04:24.303Z,93.57
2023-01-19T01:06:54.219Z,101.97
2023-01-19T01:09:25.474Z,125.50
2023-01-19T01:11:55.459Z,116.03
2023-01-19T01:14:25.840Z,107.72
2023-01-19T01:16:59.195Z,116.72
2023-01-19T01:19:28.990Z,131.40
2023-01-19T01:21:58.345Z,119.68
2023-01-19T01:24:27.812Z,159.35
2023-01-19T01:26:58.022Z,142.73
2023-01-19T01:29:27.813Z,128.13
2023-01-19T01:31:57.835Z,138.63
2023-01-19T01:34:26.730Z,135.35
2023-01-19T01:36:56.020Z,145.02
2023-01-19T01:39:25.498Z,168.55
2023-01-19T01:41:55.899Z,144.43
2023-01-19T01:44:53.872Z,163.95
2023-01-19T01:47:29.107Z,149.95
2023-01-19T01:50:19.248Z,148.25
2023-01-19T01:53:07.639Z,155.45
2023-01-19T01:55:48.823Z,164.80
2023-01-19T01:58:18.699Z,161.88
2023-01-19T02:01:06.469Z,172.50
2023-01-19T02:03:36.522Z,157.98
2023-01-19T02:06:08.906Z,177.02
2023-01-19T02:09:27.095Z,184.10
2023-01-19T02:12:15.498Z,156.40
2023-01-19T02:14:44.846Z,233.00
2023-01-19T02:17:14.130Z,271.23
2023-01-19T02:19:45.477Z,231.05
2023-01-19T02:22:18.873Z,202.10
2023-01-19T02:24:48.518Z,170.32
2023-01-19T02:27:18.604Z,160.32
2023-01-19T02:29:48.214Z,155.02
2023-01-19T02:32:17.220Z,161.18
2023-01-19T02:34:46.730Z,508.13
2023-01-19T02:37:19.397Z,188.60
2023-01-19T02:39:58.960Z,162.70
2023-01-19T02:42:53.162Z,171.75
2023-01-19T02:45:24.208Z,189.20
2023-01-19T02:47:54.337Z,282.63
2023-01-19T02:51:05.373Z,280.73
2023-01-19T02:53:34.944Z,209.20
2023-01-19T02:56:24.862Z,211.52
2023-01-19T02:59:07.709Z,162.55
2023-01-19T03:04:39.127Z,187.68
2023-01-19T03:07:27.080Z,174.52
2023-01-19T03:10:04.492Z,169.48
2023-01-19T03:12:44.820Z,186.45
2023-01-19T03:15:34.759Z,165.25
2023-01-19T03:18:08.202Z,183.52
2023-01-19T03:20:39.133Z,194.60
2023-01-19T03:23:14.135Z,203.50
2023-01-19T03:25:48.656Z,190.55
2023-01-19T03:28:21.475Z,226.93
2023-01-19T03:30:59.465Z,216.10
2023-01-19T03:33:36.398Z,184.82
2023-01-19T03:36:13.447Z,203.65
2023-01-19T03:38:45.525Z,186.00
2023-01-19T03:41:19.292Z,178.60
2023-01-19T03:43:51.243Z,158.82
2023-01-19T03:46:22.035Z,156.48
2023-01-19T03:48:52.021Z,159.18
2023-01-19T03:51:21.513Z,161.35
2023-01-19T03:53:51.491Z,161.10
2023-01-19T03:56:26.384Z,158.32
2023-01-19T03:58:56.325Z,141.70
2023-01-19T04:01:27.073Z,146.90
2023-01-19T04:03:56.813Z,159.65
2023-01-19T04:06:26.603Z,155.93
2023-01-19T04:08:56.141Z,127.13
2023-01-19T04:11:25.653Z,133.70
2023-01-19T04:13:55.726Z,139.73
2023-01-19T04:16:25.317Z,138.80
2023-01-19T04:18:54.433Z,174.48
2023-01-19T04:21:24.056Z,119.43
2023-01-19T04:23:54.386Z,128.88
2023-01-19T04:26:26.884Z,116.20
2023-01-19T04:28:56.298Z,146.82
2023-01-19T04:31:26.391Z,125.45
2023-01-19T04:33:57.401Z,130.77
2023-01-19T04:36:27.240Z,118.30
2023-01-19T04:38:56.856Z,106.18
2023-01-19T04:41:26.326Z,123.18
2023-01-19T04:43:56.009Z,110.88
2023-01-19T04:46:25.306Z,143.25
2023-01-19T04:48:54.759Z,180.48
2023-01-19T04:51:24.136Z,139.60
2023-01-19T04:53:53.746Z,125.22
2023-01-19T04:56:23.837Z,122.15
2023-01-19T04:58:53.036Z,131.65
2023-01-19T05:01:22.433Z,98.40
2023-01-19T05:03:51.908Z,94.43
2023-01-19T05:06:21.141Z,99.40
2023-01-19T05:08:50.636Z,107.05
2023-01-19T05:11:20.032Z,100.05
2023-01-19T05:13:50.879Z,97.45
2023-01-19T05:16:20.633Z,107.90
2023-01-19T05:18:50.124Z,86.18
2023-01-19T05:21:19.471Z,83.25
2023-01-19T05:23:48.290Z,76.93
2023-01-19T05:26:17.919Z,112.80
2023-01-19T05:28:47.589Z,134.75
2023-01-19T05:31:18.650Z,116.03
2023-01-19T05:33:50.178Z,82.25
2023-01-19T05:36:19.126Z,86.05
2023-01-19T05:38:48.430Z,89.38
2023-01-19T05:41:18.749Z,71.07
2023-01-19T05:43:48.155Z,87.25
2023-01-19T05:46:17.513Z,80.70
2023-01-19T05:48:46.944Z,103.35
2023-01-19T05:51:16.226Z,93.20
2023-01-19T05:53:45.512Z,87.68
2023-01-19T05:56:14.582Z,91.03
2023-01-19T05:58:43.507Z,105.25
2023-01-19T06:01:12.820Z,121.15
2023-01-19T06:03:42.120Z,101.90
2023-01-19T06:06:11.149Z,100.30
2023-01-19T06:08:40.763Z,111.30
2023-01-19T06:11:10.723Z,113.45
2023-01-19T06:13:44.400Z,133.85
2023-01-19T06:16:14.115Z,127.38
2023-01-19T06:18:43.852Z,127.90
2023-01-19T06:21:15.253Z,116.05
2023-01-19T06:23:44.826Z,117.70
2023-01-19T06:26:14.831Z,113.60
2023-01-19T06:28:44.123Z,112.45
2023-01-19T06:31:14.013Z,145.27
2023-01-19T06:33:43.820Z,119.60
2023-01-19T06:36:13.415Z,110.47
2023-01-19T06:38:42.786Z,106.80
2023-01-19T06:41:12.304Z,106.22
2023-01-19T06:43:41.806Z,112.18
2023-01-19T06:46:11.420Z,140.13
2023-01-19T06:48:40.890Z,130.80
2023-01-19T06:51:37.971Z,129.15
2023-01-19T06:54:06.983Z,118.63
2023-01-19T06:56:35.770Z,95.63
2023-01-19T06:59:05.517Z,91.68
2023-01-19T07:01:34.696Z,94.72
2023-01-19T07:04:04.989Z,94.15
2023-01-19T07:06:34.485Z,95.90
2023-01-19T07:09:08.001Z,102.10
2023-01-19T07:11:37.882Z,100.22
2023-01-19T07:14:07.490Z,102.65
2023-01-19T07:16:36.840Z,115.20
2023-01-19T07:19:06.129Z,109.38
2023-01-19T07:21:35.163Z,85.38
2023-01-19T07:24:04.887Z,81.07
2023-01-19T07:26:34.260Z,85.05
2023-01-19T07:29:03.827Z,56.40
2023-01-19T07:31:33.304Z,75.97
2023-01-19T07:34:02.452Z,56.53
2023-01-19T07:36:32.327Z,57.40
2023-01-19T07:39:01.483Z,47.53
2023-01-19T07:41:30.625Z,71.03
2023-01-19T07:44:04.481Z,48.13
2023-01-19T07:46:33.922Z,69.43
2023-01-19T07:49:03.336Z,69.30
2023-01-19T07:51:32.537Z,81.80
2023-01-19T07:54:02.607Z,59.00
2023-01-19T07:56:44.938Z,69.03
2023-01-19T07:59:14.379Z,60.80
2023-01-19T08:01:43.421Z,78.18
2023-01-19T08:04:13.473Z,74.28
2023-01-19T08:06:47.398Z,64.80
2023-01-19T08:09:16.663Z,67.90
2023-01-19T08:11:45.976Z,64.53
2023-01-19T08:14:15.210Z,58.72
2023-01-19T08:16:44.593Z,64.18
2023-01-19T08:19:14.568Z,56.75
2023-01-19T08:21:44.375Z,68.97
2023-01-19T08:24:22.637Z,64.68
2023-01-19T08:26:52.861Z,55.78
2023-01-19T08:29:22.543Z,56.63
2023-01-19T08:31:52.002Z,70.13
2023-01-19T08:34:21.810Z,44.95
2023-01-19T08:36:51.281Z,45.03
2023-01-19T08:39:20.921Z,47.17
2023-01-19T08:41:51.090Z,48.35
2023-01-19T08:44:21.040Z,58.90
2023-01-19T08:46:50.947Z,109.63
2023-01-19T08:49:20.259Z,97.32
2023-01-19T08:55:18.351Z,83.55
2023-01-19T08:57:47.764Z,69.30
2023-01-19T09:00:17.732Z,77.57
2023-01-19T09:02:53.109Z,74.40
2023-01-19T09:05:23.755Z,72.13
2023-01-19T09:07:53.444Z,72.57
2023-01-19T09:10:23.063Z,74.78
2023-01-19T09:12:52.796Z,96.68
2023-01-19T09:15:21.704Z,101.00
2023-01-19T09:17:53.360Z,67.97
2023-01-19T09:20:24.439Z,97.77
2023-01-19T09:22:53.866Z,103.18
2023-01-19T09:25:23.229Z,75.18
2023-01-19T09:27:53.282Z,63.13
2023-01-19T09:30:22.801Z,65.93
2023-01-19T09:32:52.198Z,64.00
2023-01-19T09:35:22.795Z,59.55
2023-01-19T09:37:52.288Z,63.00
2023-01-19T09:40:22.598Z,71.90
2023-01-19T09:43:25.743Z,73.13
2023-01-19T09:46:02.356Z,62.25
2023-01-19T09:48:40.751Z,69.82
2023-01-19T09:51:24.389Z,61.15
2023-01-19T09:54:13.971Z,85.28
2023-01-19T09:56:51.219Z,61.40
2023-01-19T09:59:23.799Z,56.85
2023-01-19T10:02:05.242Z,63.35
2023-01-19T10:04:42.395Z,61.00
2023-01-19T10:07:54.486Z,52.58
2023-01-19T10:10:32.934Z,68.18
2023-01-19T10:13:13.877Z,85.38
2023-01-19T10:15:43.027Z,70.53
2023-01-19T10:18:15.326Z,64.07
2023-01-19T10:20:53.189Z,61.83
2023-01-19T10:23:41.340Z,58.40
2023-01-19T10:26:24.675Z,58.78
2023-01-19T10:28:59.071Z,73.53
2023-01-19T10:31:28.569Z,82.35
2023-01-19T10:33:58.259Z,64.22
2023-01-19T10:36:30.419Z,64.38
2023-01-19T10:39:00.242Z,74.05
2023-01-19T10:41:53.484Z,73.30
2023-01-19T10:44:31.150Z,64.13
2023-01-19T10:47:03.183Z,88.32
2023-01-19T10:49:40.267Z,73.07
2023-01-19T10:52:21.030Z,84.35
2023-01-19T10:54:50.514Z,68.65
2023-01-19T10:57:32.023Z,80.00
2023-01-19T11:00:01.651Z,92.60
2023-01-19T11:02:33.374Z,92.28
2023-01-19T11:05:24.679Z,99.90
2023-01-19T11:07:54.131Z,93.25
2023-01-19T11:10:25.240Z,101.68
2023-01-19T11:13:02.320Z,103.63
2023-01-19T11:15:56.190Z,111.57
2023-01-19T11:18:33.592Z,135.98
2023-01-19T11:21:15.587Z,107.65
2023-01-19T11:23:52.014Z,111.57
2023-01-19T11:26:42.797Z,90.60
2023-01-19T11:29:23.432Z,83.85
2023-01-19T11:31:54.379Z,143.23
2023-01-19T11:34:41.264Z,133.70
2023-01-19T11:37:20.396Z,137.20
2023-01-19T11:39:53.602Z,130.63
2023-01-19T11:42:24.170Z,119.50
2023-01-19T11:44:56.153Z,115.60
2023-01-19T11:47:42.772Z,102.82
2023-01-19T11:50:30.784Z,104.47
2023-01-19T11:53:18.918Z,116.85
2023-01-19T11:55:59.256Z,129.85
2023-01-19T11:58:29.217Z,159.40
2023-01-19T12:01:22.091Z,116.30
2023-01-19T12:04:11.734Z,104.80
2023-01-19T12:06:48.933Z,109.75
2023-01-19T12:09:43.703Z,124.70
2023-01-19T12:12:33.613Z,130.20
2023-01-19T12:15:23.740Z,159.95
2023-01-19T12:17:56.466Z,150.68
2023-01-19T12:20:47.724Z,172.13
2023-01-19T12:23:34.441Z,196.75
2023-01-19T12:26:34.779Z,151.35
2023-01-19T12:29:15.834Z,140.63
2023-01-19T12:31:45.136Z,127.30
2023-01-19T12:34:41.644Z,102.50
2023-01-19T12:37:32.089Z,98.82
2023-01-19T12:40:29.794Z,107.40
2023-01-19T12:43:07.193Z,107.68
2023-01-19T12:45:40.774Z,100.30
2023-01-19T12:48:26.417Z,108.15
2023-01-19T12:50:55.484Z,98.55
2023-01-19T12:53:27.674Z,119.93
2023-01-19T12:56:02.000Z,128.20
2023-01-19T12:58:31.390Z,173.63
2023-01-19T13:01:22.448Z,194.40
2023-01-19T13:04:10.745Z,230.55
2023-01-19T13:06:49.298Z,212.25
2023-01-19T13:09:34.328Z,170.52
2023-01-19T13:12:15.906Z,164.63
2023-01-19T13:14:46.122Z,170.05
2023-01-19T13:17:39.299Z,211.02
2023-01-19T13:20:29.599Z,217.55
2023-01-19T13:23:27.472Z,210.93
2023-01-19T13:26:14.265Z,199.90
2023-01-19T13:28:46.489Z,148.73
2023-01-19T13:31:16.479Z,138.32
2023-01-19T13:33:58.041Z,133.90
2023-01-19T13:36:48.891Z,112.65
2023-01-19T13:39:29.119Z,116.15
2023-01-19T13:42:02.632Z,114.90
2023-01-19T13:44:43.399Z,139.18
2023-01-19T13:47:21.344Z,154.95
2023-01-19T13:49:54.746Z,148.15
2023-01-19T13:52:26.025Z,153.75
2023-01-19T13:55:03.083Z,178.57
2023-01-19T13:57:35.284Z,201.23
2023-01-19T14:00:09.419Z,210.35
2023-01-19T14:02:42.722Z,182.18
2023-01-19T14:05:17.462Z,170.13
2023-01-19T14:07:47.641Z,170.52
2023-01-19T14:10:17.858Z,168.05
2023-01-19T14:12:58.933Z,174.57
2023-01-19T14:15:31.099Z,217.32
2023-01-19T14:18:12.368Z,206.80
2023-01-19T14:20:42.482Z,205.50
2023-01-19T14:23:37.136Z,199.43
2023-01-19T14:26:07.163Z,162.63
2023-01-19T14:28:41.556Z,170.57
2023-01-19T14:31:29.916Z,167.55
2023-01-19T14:34:02.014Z,149.65
2023-01-19T14:36:40.267Z,166.18
2023-01-19T14:39:24.129Z,164.98
2023-01-19T14:41:56.539Z,201.18
2023-01-19T14:44:35.829Z,207.55
2023-01-19T14:47:07.254Z,185.10
2023-01-19T14:49:42.367Z,173.15
2023-01-19T14:52:28.383Z,157.07
2023-01-19T14:55:00.779Z,176.18
2023-01-19T14:57:30.834Z,152.32
2023-01-19T15:00:00.205Z,166.32
2023-01-19T15:02:29.430Z,167.13
2023-01-19T15:04:58.951Z,194.73
2023-01-19T15:07:29.304Z,202.90
2023-01-19T15:10:00.820Z,212.02
2023-01-19T15:12:30.789Z,195.20
2023-01-19T15:15:00.335Z,209.75
2023-01-19T15:17:29.588Z,218.50
2023-01-19T15:19:58.955Z,180.60
2023-01-19T15:22:29.371Z,174.90
2023-01-19T15:25:01.037Z,189.18
2023-01-19T15:27:30.400Z,180.90
2023-01-19T15:30:00.696Z,182.05
2023-01-19T15:32:29.813Z,183.73
2023-01-19T15:34:59.043Z,204.55
2023-01-19T15:37:29.024Z,182.57
2023-01-19T15:39:58.406Z,138.68
2023-01-19T15:42:27.384Z,129.82
2023-01-19T15:44:56.693Z,123.03
2023-01-19T15:47:25.801Z,122.97
2023-01-19T15:49:55.138Z,112.20
2023-01-19T15:52:24.578Z,126.18
2023-01-19T15:54:53.893Z,129.40
2023-01-19T15:57:23.204Z,103.53
2023-01-19T15:59:52.340Z,97.10
2023-01-19T16:02:22.055Z,111.90
2023-01-19T16:04:51.753Z,103.57
2023-01-19T16:07:21.936Z,107.07
2023-01-19T16:09:51.551Z,100.18
2023-01-19T16:12:20.554Z,106.93
2023-01-19T16:14:50.336Z,99.03
2023-01-19T16:17:19.946Z,105.80
2023-01-19T16:19:49.480Z,106.18
2023-01-19T16:22:18.550Z,103.55
2023-01-19T16:24:48.231Z,110.53
2023-01-19T16:27:17.341Z,103.38
2023-01-19T16:29:46.733Z,96.97
2023-01-19T16:32:17.017Z,84.55
2023-01-19T16:34:46.428Z,86.88
2023-01-19T16:37:16.447Z,82.78
2023-01-19T16:39:46.499Z,92.25
2023-01-19T16:42:17.807Z,80.13
2023-01-19T16:44:47.291Z,92.25
2023-01-19T16:47:16.253Z,85.15
2023-01-19T16:49:46.015Z,89.93
2023-01-19T16:52:16.109Z,88.10
2023-01-19T16:54:49.670Z,89.93
2023-01-19T16:57:19.494Z,93.07
2023-01-19T16:59:48.999Z,96.82
2023-01-19T17:02:18.298Z,98.28
2023-01-19T17:04:48.254Z,97.55
2023-01-19T17:07:19.284Z,118.07
2023-01-19T17:09:48.611Z,116.80
2023-01-19T17:12:18.373Z,107.15
2023-01-19T17:14:51.091Z,137.07
2023-01-19T17:17:21.286Z,123.75
2023-01-19T17:19:51.417Z,124.65
2023-01-19T17:22:21.165Z,126.15
2023-01-19T17:24:50.891Z,124.65
2023-01-19T17:27:20.537Z,121.15
2023-01-19T17:29:51.369Z,131.70
2023-01-19T17:34:52.165Z,154.18
2023-01-19T17:37:21.415Z,129.40
2023-01-19T17:39:50.954Z,130.50
2023-01-19T17:42:20.321Z,134.30
2023-01-19T17:44:49.828Z,129.07
2023-01-19T17:47:18.899Z,129.27
2023-01-19T17:49:47.920Z,143.23
2023-01-19T17:52:17.987Z,129.00
2023-01-19T17:54:47.619Z,136.23
2023-01-19T17:57:16.673Z,129.50
2023-01-19T17:59:47.951Z,144.98
2023-01-19T18:02:17.505Z,139.15
2023-01-19T18:04:47.010Z,147.00
2023-01-19T18:07:16.194Z,136.68
2023-01-19T18:09:45.460Z,165.50
2023-01-19T18:12:15.348Z,142.95
2023-01-19T18:14:44.377Z,140.63
2023-01-19T18:17:13.637Z,145.30
2023-01-19T18:19:43.278Z,137.55
2023-01-19T18:22:12.950Z,144.15
2023-01-19T18:24:42.099Z,125.18
2023-01-19T18:27:11.698Z,143.52
2023-01-19T18:29:41.068Z,146.38
2023-01-19T18:32:10.606Z,141.82
2023-01-19T18:34:39.969Z,138.13
2023-01-19T18:37:10.157Z,131.45
2023-01-19T18:39:39.670Z,132.65
2023-01-19T18:42:09.201Z,139.43
2023-01-19T18:44:38.594Z,133.20
2023-01-19T18:47:07.793Z,138.43
2023-01-19T18:49:36.714Z,137.15
2023-01-19T18:52:06.456Z,135.70
2023-01-19T18:54:35.645Z,136.02
2023-01-19T18:57:04.833Z,140.68
2023-01-19T18:59:34.389Z,149.40
2023-01-19T19:02:06.228Z,132.25
2023-01-19T19:04:35.694Z,152.40
2023-01-19T19:07:04.834Z,132.63
2023-01-19T19:09:34.168Z,131.40
2023-01-19T19:12:03.651Z,137.93
2023-01-19T19:14:34.368Z,139.55
2023-01-19T19:17:03.600Z,146.00
2023-01-19T19:19:32.860Z,129.93
2023-01-19T19:22:02.165Z,136.65
2023-01-19T19:24:31.596Z,124.05
2023-01-19T19:27:01.057Z,146.32
2023-01-19T19:29:30.530Z,141.10
2023-01-19T19:32:00.549Z,143.77
2023-01-19T19:34:30.345Z,139.32
2023-01-19T19:37:01.120Z,154.65
2023-01-19T19:39:31.202Z,141.68
2023-01-19T19:42:00.319Z,149.18
2023-01-19T19:44:29.863Z,144.57
2023-01-19T19:46:59.353Z,136.85
2023-01-19T19:49:28.695Z,151.88
2023-01-19T19:51:57.875Z,151.98
2023-01-19T19:54:27.588Z,142.45
2023-01-19T19:56:56.422Z,149.00
2023-01-19T19:59:25.437Z,121.65
2023-01-19T20:01:55.890Z,128.65
2023-01-19T20:04:26.209Z,118.43
2023-01-19T20:06:55.748Z,111.53
2023-01-19T20:09:25.087Z,114.43
2023-01-19T20:11:54.513Z,93.65
2023-01-19T20:14:25.096Z,103.88
2023-01-19T20:16:55.316Z,76.50
2023-01-19T20:19:24.600Z,82.25
2023-01-19T20:21:53.890Z,66.85
2023-01-19T20:24:22.928Z,76.88
2023-01-19T20:26:54.277Z,64.95
2023-01-19T20:29:24.058Z,76.20
2023-01-19T20:31:56.799Z,61.33
2023-01-19T20:36:57.744Z,70.95
2023-01-19T20:39:27.187Z,54.85
2023-01-19T20:41:56.415Z,63.28
2023-01-19T20:44:27.682Z,57.97
2023-01-19T20:46:57.322Z,59.78
2023-01-19T20:49:27.448Z,61.85
2023-01-19T20:51:59.549Z,59.80
2023-01-19T20:54:31.282Z,60.00
2023-01-19T20:57:00.833Z,59.35
2023-01-19T20:59:30.254Z,76.65
2023-01-19T21:01:59.582Z,79.20
2023-01-19T21:04:28.308Z,60.22
2023-01-19T21:06:57.494Z,65.60
2023-01-19T21:09:26.855Z,60.13
2023-01-19T21:11:57.440Z,68.97
2023-01-19T21:14:27.665Z,64.85
2023-01-19T21:17:00.304Z,56.05
2023-01-19T21:19:29.324Z,74.40
2023-01-19T21:21:58.624Z,66.47
2023-01-19T21:24:27.721Z,69.57
2023-01-19T21:26:56.968Z,60.42
2023-01-19T21:29:26.414Z,66.68
2023-01-19T21:31:55.928Z,59.72
2023-01-19T21:34:25.255Z,68.05
2023-01-19T21:36:54.781Z,82.88
2023-01-19T21:39:24.107Z,57.47
2023-01-19T21:41:53.412Z,66.60
2023-01-19T21:44:22.765Z,62.47
2023-01-19T21:46:51.952Z,68.72
2023-01-19T21:49:21.868Z,61.47
2023-01-19T21:51:53.619Z,52.80
2023-01-19T21:54:22.904Z,55.80
2023-01-19T21:56:52.278Z,58.92
2023-01-19T21:59:21.624Z,56.72
2023-01-19T22:01:51.288Z,50.47
2023-01-19T22:04:20.512Z,61.90
2023-01-19T22:06:49.610Z,52.28
2023-01-19T22:09:19.095Z,54.15
2023-01-19T22:11:48.628Z,57.40
2023-01-19T22:14:17.519Z,57.50
2023-01-19T22:16:46.973Z,50.78
2023-01-19T22:19:16.341Z,45.67
2023-01-19T22:21:45.555Z,51.10
2023-01-19T22:24:14.736Z,61.65
2023-01-19T22:26:43.938Z,56.90
2023-01-19T22:29:14.222Z,60.00
2023-01-19T22:31:44.238Z,57.50
2023-01-19T22:34:14.507Z,61.05
2023-01-19T22:36:44.319Z,51.22
2023-01-19T22:39:14.666Z,58.30
2023-01-19T22:41:48.985Z,53.42
2023-01-19T22:44:21.955Z,70.47
2023-01-19T22:46:55.168Z,61.30
2023-01-19T22:49:24.395Z,52.67
2023-01-19T22:51:55.281Z,57.08
2023-01-19T22:54:24.500Z,71.53
2023-01-19T22:56:53.407Z,63.33
2023-01-19T22:59:22.654Z,57.88
2023-01-19T23:01:52.441Z,55.10
2023-01-19T23:04:21.562Z,55.20
2023-01-19T23:06:53.177Z,60.72
2023-01-19T23:09:23.820Z,63.67
2023-01-19T23:11:53.871Z,54.15
2023-01-19T23:14:24.021Z,63.90
2023-01-19T23:16:53.589Z,56.53
2023-01-19T23:19:22.804Z,62.35
2023-01-19T23:21:54.869Z,52.78
2023-01-19T23:24:23.884Z,57.83
2023-01-19T23:26:53.742Z,59.70
2023-01-19T23:29:22.984Z,59.85
2023-01-19T23:31:54.541Z,59.35
2023-01-19T23:34:23.903Z,61.65
2023-01-19T23:36:53.111Z,64.60
2023-01-19T23:39:23.702Z,57.15
2023-01-19T23:41:53.090Z,59.45
2023-01-19T23:44:22.317Z,68.65
2023-01-19T23:46:52.034Z,78.88
2023-01-19T23:49:21.602Z,62.80
2023-01-19T23:51:50.984Z,75.65
2023-01-19T23:54:20.433Z,61.85
2023-01-19T23:56:49.721Z,61.97
2023-01-19T23:59:18.972Z,67.63
